Time;durP1;ratioP1;P1;durP2;ratioP2;P2;SDS_P1;SDS_P2;PMS_P1;PMS_P2;Temp;Humidity;BMP_temperature;BMP_pressure;BME280_temperature;BME280_humidity;BME280_pressure;Samples;Min_cycle;Max_cycle;Signal;HPM_P1;HPM_P2
2022/06/07 00:01:21;;;;;;;1.40;0.90;;;25.80;64.80;;;;;;5113165;28;20445;-78
2022/06/07 00:03:48;;;;;;;1.00;0.87;;;25.80;64.70;;;;;;5113005;28;20491;-77
2022/06/07 00:06:15;;;;;;;1.00;0.90;;;25.80;64.70;;;;;;5113280;28;20446;-77
2022/06/07 00:08:42;;;;;;;1.00;0.80;;;25.80;64.80;;;;;;5113214;28;21009;-77
2022/06/07 00:11:10;;;;;;;5.27;1.00;;;25.80;64.70;;;;;;5113742;28;20794;-78
2022/06/07 00:13:37;;;;;;;1.10;0.90;;;25.80;64.90;;;;;;5116845;28;20478;-77
2022/06/07 00:16:05;;;;;;;1.10;0.90;;;25.80;64.80;;;;;;5116865;28;20450;-77
2022/06/07 00:18:32;;;;;;;1.17;0.93;;;25.80;64.80;;;;;;5116963;28;20775;-79
2022/06/07 00:21:01;;;;;;;0.97;0.80;;;25.80;64.80;;;;;;5116799;28;20462;-77
2022/06/07 00:23:29;;;;;;;1.33;1.23;;;25.80;65.70;;;;;;5116732;28;20482;-80
2022/06/07 00:25:56;;;;;;;1.33;0.80;;;25.80;64.80;;;;;;5116622;28;20445;-77
2022/06/07 00:28:23;;;;;;;0.90;0.73;;;25.80;64.80;;;;;;5116765;28;20481;-77
2022/06/07 00:30:50;;;;;;;1.00;0.90;;;25.80;64.80;;;;;;5116686;28;20513;-77
2022/06/07 00:33:20;;;;;;;0.93;0.73;;;25.80;64.80;;;;;;5116713;28;20439;-77
2022/06/07 00:35:47;;;;;;;1.10;1.00;;;25.80;64.80;;;;;;5116609;28;20435;-77
2022/06/07 00:38:14;;;;;;;0.90;0.80;;;25.80;64.80;;;;;;5116606;28;20534;-77
2022/06/07 00:40:42;;;;;;;0.90;0.80;;;25.80;64.90;;;;;;5116548;28;20441;-77
2022/06/07 00:43:10;;;;;;;1.00;0.80;;;25.80;64.80;;;;;;5116489;28;20565;-77
2022/06/07 00:45:38;;;;;;;0.90;0.70;;;25.80;64.80;;;;;;5116276;28;20468;-77
2022/06/07 00:48:07;;;;;;;0.90;0.70;;;25.80;64.80;;;;;;5116290;28;20533;-77
2022/06/07 00:50:42;;;;;;;0.90;0.77;;;25.80;64.80;;;;;;5116303;28;20455;-77
2022/06/07 00:53:22;;;;;;;1.43;0.80;;;25.80;64.80;;;;;;5116425;28;20439;-77
2022/06/07 00:55:49;;;;;;;0.90;0.80;;;25.80;64.80;;;;;;5116083;28;20442;-78
2022/06/07 00:58:16;;;;;;;1.00;0.90;;;25.80;64.80;;;;;;5116163;28;21003;-78
2022/06/07 01:00:42;;;;;;;0.93;0.77;;;25.80;64.80;;;;;;5116128;28;20453;-78
2022/06/07 01:03:09;;;;;;;0.90;0.70;;;25.80;64.80;;;;;;5116062;28;20566;-78
2022/06/07 01:05:38;;;;;;;1.07;0.83;;;25.80;64.80;;;;;;5115882;28;20557;-78
2022/06/07 01:10:53;;;;;;;1.00;0.80;;;25.80;64.80;;;;;;5116341;28;20426;-80
2022/06/07 01:13:22;;;;;;;1.50;0.87;;;25.80;64.80;;;;;;5115667;28;20473;-78
2022/06/07 01:15:49;;;;;;;1.00;0.83;;;25.80;64.80;;;;;;5115909;28;20522;-78
2022/06/07 01:18:16;;;;;;;1.00;0.90;;;25.80;64.80;;;;;;5115844;28;20526;-78
2022/06/07 01:20:45;;;;;;;1.00;0.90;;;25.80;64.80;;;;;;5115793;28;20467;-78
2022/06/07 01:23:13;;;;;;;1.07;0.97;;;25.80;64.70;;;;;;5115397;28;20582;-78
2022/06/07 01:25:40;;;;;;;0.90;0.70;;;25.80;64.70;;;;;;5115568;28;20538;-78
2022/06/07 01:28:07;;;;;;;0.90;0.80;;;25.80;64.70;;;;;;5115526;28;21059;-78
2022/06/07 01:30:34;;;;;;;1.20;1.03;;;25.80;64.70;;;;;;5115616;28;20621;-78
2022/06/07 01:33:01;;;;;;;1.10;0.90;;;25.80;64.70;;;;;;5115682;28;20446;-78
2022/06/07 01:35:28;;;;;;;1.00;0.90;;;25.80;64.60;;;;;;5115473;28;20874;-78
2022/06/07 01:37:55;;;;;;;1.20;1.10;;;25.80;64.70;;;;;;5115498;28;20435;-78
2022/06/07 01:43:07;;;;;;;1.00;0.90;;;25.80;64.70;;;;;;5115498;28;20481;-78
2022/06/07 01:45:34;;;;;;;1.07;0.90;;;25.70;64.70;;;;;;5115081;28;20461;-78
2022/06/07 01:48:01;;;;;;;1.20;0.93;;;25.70;64.60;;;;;;5115261;28;20443;-78
2022/06/07 01:50:27;;;;;;;1.00;0.90;;;25.80;64.70;;;;;;5115259;28;20455;-78
2022/06/07 01:52:54;;;;;;;1.77;0.90;;;25.80;64.70;;;;;;5115093;28;20998;-78
2022/06/07 01:55:23;;;;;;;1.00;0.73;;;25.80;64.70;;;;;;5115172;28;20458;-78
2022/06/07 01:57:49;;;;;;;0.90;0.80;;;25.70;64.50;;;;;;5114964;28;20965;-78
2022/06/07 02:00:17;;;;;;;1.00;0.80;;;25.70;64.60;;;;;;5115037;28;20463;-78
2022/06/07 02:02:44;;;;;;;1.00;0.90;;;25.70;64.60;;;;;;5114953;28;20993;-78
2022/06/07 02:05:11;;;;;;;0.97;0.83;;;25.70;64.60;;;;;;5114781;28;20469;-78
2022/06/07 02:07:38;;;;;;;1.10;0.90;;;25.70;64.60;;;;;;5114758;28;20453;-78
2022/06/07 02:10:06;;;;;;;0.90;0.70;;;25.70;64.50;;;;;;5114805;28;20471;-78
2022/06/07 02:12:34;;;;;;;1.00;0.80;;;25.70;64.60;;;;;;5114636;28;20550;-78
2022/06/07 02:15:03;;;;;;;1.97;0.90;;;25.70;64.50;;;;;;5114867;28;20525;-78
2022/06/07 02:17:30;;;;;;;1.10;0.90;;;25.70;64.50;;;;;;5114797;28;20439;-78
2022/06/07 02:19:57;;;;;;;1.00;0.90;;;25.70;64.60;;;;;;5114468;28;20538;-78
2022/06/07 02:22:25;;;;;;;0.93;0.83;;;25.70;64.50;;;;;;5114304;28;20522;-78
2022/06/07 02:24:51;;;;;;;1.00;0.87;;;25.70;64.50;;;;;;5114562;28;20478;-78
2022/06/07 02:27:21;;;;;;;1.00;0.90;;;25.70;64.50;;;;;;5114357;28;20467;-78
2022/06/07 02:29:52;;;;;;;1.00;0.80;;;25.70;64.50;;;;;;5114469;28;20441;-81
2022/06/07 02:32:22;;;;;;;1.03;0.90;;;25.70;64.50;;;;;;5114467;28;20522;-78
2022/06/07 02:34:53;;;;;;;1.00;0.90;;;25.70;64.50;;;;;;5113586;28;20490;-78
2022/06/07 02:37:21;;;;;;;1.00;0.90;;;25.70;64.60;;;;;;5114168;28;20440;-78
2022/06/07 02:39:48;;;;;;;1.00;0.90;;;25.70;64.50;;;;;;5114092;28;20446;-78
2022/06/07 02:42:17;;;;;;;1.00;0.90;;;25.70;64.60;;;;;;5113977;28;20477;-78
2022/06/07 02:44:44;;;;;;;1.00;0.90;;;25.70;64.50;;;;;;5113984;28;20485;-78
2022/06/07 02:47:12;;;;;;;0.90;0.70;;;25.70;64.60;;;;;;5114205;28;20481;-78
2022/06/07 02:49:39;;;;;;;1.30;0.90;;;25.70;64.50;;;;;;5113925;28;20458;-78
2022/06/07 02:52:06;;;;;;;1.10;0.97;;;25.70;64.50;;;;;;5114032;28;20535;-78
2022/06/07 02:54:34;;;;;;;1.10;0.80;;;25.70;64.50;;;;;;5114039;28;20435;-78
2022/06/07 02:57:00;;;;;;;1.23;0.80;;;25.70;64.50;;;;;;5114020;28;20969;-78
2022/06/07 02:59:27;;;;;;;1.10;1.00;;;25.70;64.50;;;;;;5113974;28;20443;-79
2022/06/07 03:01:54;;;;;;;1.00;0.80;;;25.60;64.40;;;;;;5113984;28;20443;-78
2022/06/07 03:04:22;;;;;;;1.40;0.90;;;25.70;64.50;;;;;;5113685;28;20483;-78
2022/06/07 03:06:49;;;;;;;1.10;1.00;;;25.60;64.40;;;;;;5114084;28;20467;-78
2022/06/07 03:09:16;;;;;;;1.00;0.90;;;25.70;64.50;;;;;;5113889;28;20439;-78
2022/06/07 03:11:43;;;;;;;0.90;0.73;;;25.70;64.40;;;;;;5113878;28;20922;-78
2022/06/07 03:14:10;;;;;;;1.10;0.90;;;25.70;64.40;;;;;;5113565;28;20467;-78
2022/06/07 03:16:38;;;;;;;1.00;0.90;;;25.70;64.40;;;;;;5113624;28;20435;-78
2022/06/07 03:19:05;;;;;;;1.00;0.90;;;25.70;64.40;;;;;;5113490;28;20529;-78
2022/06/07 03:21:33;;;;;;;1.00;0.90;;;25.60;64.40;;;;;;5113647;28;20850;-78
2022/06/07 03:24:00;;;;;;;1.00;0.90;;;25.60;64.40;;;;;;5113442;28;20488;-78
2022/06/07 03:26:28;;;;;;;1.10;1.00;;;25.60;64.40;;;;;;5113641;28;20490;-81
2022/06/07 03:28:55;;;;;;;0.90;0.80;;;25.60;64.50;;;;;;5113486;28;20438;-78
2022/06/07 03:31:21;;;;;;;0.97;0.80;;;25.60;64.40;;;;;;5113745;28;20539;-78
2022/06/07 03:33:49;;;;;;;1.03;0.90;;;25.60;64.40;;;;;;5113614;28;20523;-78
2022/06/07 03:36:20;;;;;;;1.00;0.90;;;25.60;64.40;;;;;;5113370;28;20477;-81
2022/06/07 03:38:49;;;;;;;1.00;0.87;;;25.60;64.40;;;;;;5113558;28;20523;-79
2022/06/07 03:41:18;;;;;;;1.00;0.80;;;25.60;64.40;;;;;;5113662;28;20530;-79
2022/06/07 03:43:45;;;;;;;1.10;0.90;;;25.60;64.30;;;;;;5114948;28;20478;-82
2022/06/07 03:46:16;;;;;;;0.90;0.80;;;25.60;64.40;;;;;;5134891;27;20537;-80
2022/06/07 03:48:44;;;;;;;1.00;0.90;;;25.60;65.20;;;;;;5136556;27;20474;-79
2022/06/07 03:51:12;;;;;;;0.93;0.83;;;25.60;64.40;;;;;;5136564;27;20464;-82
2022/06/07 03:53:39;;;;;;;1.10;0.90;;;25.60;64.30;;;;;;5133272;27;21104;-79
2022/06/07 03:56:08;;;;;;;1.00;0.80;;;25.60;64.30;;;;;;5136579;27;20439;-83
2022/06/07 03:58:37;;;;;;;0.93;0.83;;;25.60;64.30;;;;;;5136386;27;20438;-79
2022/06/07 04:01:04;;;;;;;1.07;0.97;;;25.60;64.30;;;;;;5136944;27;20430;-79
2022/06/07 04:03:31;;;;;;;1.20;1.03;;;25.60;64.30;;;;;;5138422;27;20983;-82
2022/06/07 04:05:59;;;;;;;1.10;1.00;;;25.60;64.30;;;;;;5137770;27;20437;-79
2022/06/07 04:08:26;;;;;;;1.00;0.80;;;25.60;64.30;;;;;;5137599;27;20861;-79
2022/06/07 04:10:55;;;;;;;1.13;1.03;;;25.60;64.30;;;;;;5137952;27;20442;-79
2022/06/07 04:13:26;;;;;;;1.00;0.87;;;25.60;64.30;;;;;;5137613;27;20568;-79
2022/06/07 04:15:53;;;;;;;1.20;0.80;;;25.60;64.30;;;;;;5137992;27;20521;-79
2022/06/07 04:18:21;;;;;;;0.90;0.80;;;25.60;64.30;;;;;;5137664;27;20438;-78
2022/06/07 04:20:48;;;;;;;1.00;0.90;;;25.60;64.30;;;;;;5137437;27;20544;-78
2022/06/07 04:23:17;;;;;;;1.00;0.70;;;25.60;64.30;;;;;;5137324;27;20800;-78
2022/06/07 04:25:44;;;;;;;2.87;1.23;;;25.60;64.30;;;;;;5137668;27;20438;-84
2022/06/07 04:28:12;;;;;;;1.60;1.10;;;25.60;64.20;;;;;;5137402;27;20438;-83
2022/06/07 04:30:44;;;;;;;1.63;1.10;;;25.50;64.40;;;;;;5137439;27;20438;-85
2022/06/07 04:33:10;;;;;;;1.27;1.00;;;25.60;64.60;;;;;;5137318;27;20442;-79
2022/06/07 04:35:37;;;;;;;1.23;1.03;;;25.60;64.70;;;;;;5137198;27;20487;-81
2022/06/07 04:38:04;;;;;;;2.60;1.00;;;25.50;64.60;;;;;;5137145;27;20434;-79
2022/06/07 04:40:31;;;;;;;1.20;0.90;;;25.60;64.70;;;;;;5137123;27;20536;-79
2022/06/07 04:42:58;;;;;;;1.10;0.90;;;25.60;65.60;;;;;;5137079;27;20445;-79
2022/06/07 04:45:25;;;;;;;1.77;0.93;;;25.60;64.90;;;;;;5137133;27;20560;-80
2022/06/07 04:47:53;;;;;;;2.43;1.10;;;25.60;65.10;;;;;;5136951;27;20446;-81
2022/06/07 04:50:20;;;;;;;2.07;1.20;;;25.60;65.20;;;;;;5136814;27;20880;-80
2022/06/07 04:52:48;;;;;;;1.17;1.07;;;25.60;65.30;;;;;;5131722;27;20447;-85
2022/06/07 04:55:16;;;;;;;1.77;1.00;;;25.60;65.20;;;;;;5132948;27;20437;-84
2022/06/07 04:57:43;;;;;;;3.63;1.10;;;25.60;64.90;;;;;;5134391;27;20448;-84
2022/06/07 05:00:15;;;;;;;1.50;1.10;;;25.60;64.70;;;;;;5098121;28;20798;-84
2022/06/07 05:02:42;;;;;;;1.97;1.17;;;25.60;65.50;;;;;;5125817;27;20474;-84
2022/06/07 05:05:11;;;;;;;3.27;1.00;;;25.60;64.60;;;;;;5136776;27;20477;-85
2022/06/07 05:07:39;;;;;;;4.30;1.40;;;25.60;64.70;;;;;;5127707;27;20469;-82
2022/06/07 05:10:07;;;;;;;1.23;0.90;;;25.60;64.80;;;;;;5116625;27;20443;-80
2022/06/07 05:12:35;;;;;;;1.57;1.10;;;25.60;65.40;;;;;;5117231;27;20466;-79
2022/06/07 05:15:02;;;;;;;1.30;0.90;;;25.60;66.50;;;;;;5136255;27;20473;-80
2022/06/07 05:17:29;;;;;;;0.90;0.80;;;25.60;65.50;;;;;;5135908;27;20529;-79
2022/06/07 05:19:56;;;;;;;1.30;0.90;;;25.60;65.20;;;;;;5135887;27;20982;-83
2022/06/07 05:22:26;;;;;;;2.37;1.00;;;25.70;65.40;;;;;;5135806;27;20537;-80
2022/06/07 05:24:53;;;;;;;3.97;1.00;;;25.60;65.60;;;;;;5135783;27;20478;-80
2022/06/07 05:27:23;;;;;;;1.63;1.00;;;25.60;65.40;;;;;;5134753;27;20448;-79
2022/06/07 05:29:52;;;;;;;1.00;0.90;;;25.60;65.50;;;;;;5135804;27;20791;-80
2022/06/07 05:32:19;;;;;;;1.07;0.97;;;25.60;65.40;;;;;;5136431;27;20441;-86
2022/06/07 05:34:47;;;;;;;1.10;0.90;;;25.60;65.50;;;;;;5136562;27;20944;-84
2022/06/07 05:37:16;;;;;;;1.20;1.10;;;25.60;65.20;;;;;;5135845;27;20988;-85
2022/06/07 05:39:45;;;;;;;1.20;1.00;;;25.60;65.50;;;;;;5136320;27;20433;-88
2022/06/07 05:42:14;;;;;;;0.93;0.80;;;25.60;65.40;;;;;;5136689;27;20450;-89
2022/06/07 05:44:41;;;;;;;1.30;1.00;;;25.70;65.70;;;;;;5136119;27;20474;-87
2022/06/07 05:51:06;;;;;;;1.20;1.10;;;25.60;64.40;;;;;;5060476;28;20435;-91
2022/06/07 05:53:34;;;;;;;2.50;0.90;;;25.50;64.20;;;;;;5092909;28;20472;-94
2022/06/07 10:54:15;;;;;;;1.33;1.00;;;26.00;64.80;;;;;;5092659;28;20941;-89
2022/06/07 10:56:48;;;;;;;1.10;0.90;;;26.00;65.10;;;;;;5108718;28;20447;-87
2022/06/07 10:59:21;;;;;;;1.70;1.00;;;26.00;65.20;;;;;;5114821;28;20435;-88
2022/06/07 11:01:54;;;;;;;1.37;1.20;;;26.00;65.30;;;;;;5114311;28;20849;-86
2022/06/07 11:10:09;;;;;;;1.53;1.10;;;26.20;65.20;;;;;;5093831;28;20781;-94
2022/06/07 11:12:44;;;;;;;1.40;1.10;;;26.20;65.30;;;;;;5093951;28;20428;-93
2022/06/07 11:18:20;;;;;;;1.87;1.23;;;26.20;65.10;;;;;;5092277;28;20428;-93
2022/06/07 11:20:58;;;;;;;1.30;1.20;;;26.20;65.00;;;;;;5093534;28;20497;-91
2022/06/07 11:26:14;;;;;;;1.20;1.07;;;26.30;65.10;;;;;;5051589;28;20480;-91
2022/06/07 11:28:46;;;;;;;1.17;1.00;;;26.30;65.10;;;;;;5091595;28;20481;-90
2022/06/07 11:31:44;;;;;;;2.20;1.10;;;26.30;65.00;;;;;;5093909;28;20796;-89
2022/06/07 11:34:23;;;;;;;2.00;1.20;;;26.30;64.90;;;;;;5081195;28;20530;-85
2022/06/07 11:36:51;;;;;;;1.33;0.90;;;26.40;65.10;;;;;;5092991;28;20435;-86
2022/06/07 11:39:30;;;;;;;1.30;1.10;;;26.30;65.00;;;;;;5093325;28;20856;-86
2022/06/07 11:42:15;;;;;;;1.00;0.90;;;26.30;64.90;;;;;;5096218;28;20463;-85
2022/06/07 11:45:18;;;;;;;1.00;0.70;;;26.30;64.70;;;;;;5090287;28;20514;-89
2022/06/07 11:48:11;;;;;;;1.30;1.20;;;26.30;64.60;;;;;;5093521;28;20787;-88
2022/06/07 11:50:46;;;;;;;1.93;1.00;;;26.30;65.00;;;;;;5093364;28;20440;-85
2022/06/07 11:53:24;;;;;;;1.20;0.80;;;26.30;65.20;;;;;;5108373;28;20467;-86
2022/06/07 11:55:58;;;;;;;1.67;1.07;;;26.30;64.90;;;;;;5113166;28;20453;-85
2022/06/07 11:58:53;;;;;;;1.20;1.07;;;26.30;65.10;;;;;;5113458;28;20438;-85
2022/06/07 12:01:32;;;;;;;1.00;0.90;;;26.40;65.00;;;;;;5113106;28;20451;-85
2022/06/07 12:04:30;;;;;;;1.03;0.87;;;26.30;65.10;;;;;;5113243;28;20457;-85
2022/06/07 12:07:00;;;;;;;1.83;1.07;;;26.30;64.90;;;;;;5093183;28;20479;-85
2022/06/07 12:09:29;;;;;;;1.53;1.00;;;26.20;64.80;;;;;;5117237;28;20439;-85
2022/06/07 12:11:56;;;;;;;1.00;0.80;;;26.30;65.00;;;;;;5116948;28;20534;-85
2022/06/07 12:14:35;;;;;;;1.30;0.87;;;26.30;65.00;;;;;;5116872;28;20453;-85
2022/06/07 12:17:04;;;;;;;1.10;0.90;;;26.30;65.00;;;;;;5116950;28;20924;-85
2022/06/07 12:19:34;;;;;;;1.20;1.10;;;26.20;64.90;;;;;;5116846;28;20549;-85
2022/06/07 12:22:13;;;;;;;1.10;0.83;;;26.30;65.00;;;;;;5116696;28;20442;-85
2022/06/07 12:24:42;;;;;;;1.60;1.00;;;26.20;64.80;;;;;;5116722;28;20485;-85
2022/06/07 12:27:21;;;;;;;1.10;1.00;;;26.30;65.00;;;;;;5116622;28;20451;-85
2022/06/07 12:29:49;;;;;;;1.17;1.07;;;26.30;65.00;;;;;;5116670;28;20491;-85
2022/06/07 12:32:20;;;;;;;1.00;0.90;;;26.20;65.00;;;;;;5116420;28;20546;-85
2022/06/07 12:34:46;;;;;;;1.10;0.83;;;26.20;65.00;;;;;;5116533;28;20433;-85
2022/06/07 12:37:25;;;;;;;1.27;1.17;;;26.20;65.00;;;;;;5116648;28;20439;-85
2022/06/07 12:39:57;;;;;;;1.73;1.30;;;26.30;65.00;;;;;;5116828;28;20442;-85
2022/06/07 12:42:27;;;;;;;1.83;1.60;;;26.20;65.00;;;;;;5116921;28;20467;-85
2022/06/07 12:44:57;;;;;;;3.00;1.90;;;26.20;65.10;;;;;;5116891;28;20479;-89
2022/06/07 12:47:27;;;;;;;5.37;2.00;;;26.20;65.00;;;;;;5116459;28;20447;-85
2022/06/07 12:49:55;;;;;;;2.80;2.43;;;26.20;64.90;;;;;;5098179;28;20461;-85
2022/06/07 12:52:26;;;;;;;3.87;2.20;;;26.20;65.10;;;;;;5098498;28;20481;-87
2022/06/07 12:54:55;;;;;;;4.27;2.80;;;26.20;65.10;;;;;;5116227;28;20436;-86
2022/06/07 12:57:26;;;;;;;6.80;2.90;;;26.20;64.90;;;;;;5116701;28;20451;-85
2022/06/07 13:00:00;;;;;;;3.60;2.10;;;26.20;64.80;;;;;;5116381;28;20473;-85
2022/06/07 13:02:33;;;;;;;5.13;2.90;;;26.20;65.80;;;;;;5116303;28;20435;-85
2022/06/07 13:05:06;;;;;;;4.33;2.53;;;26.20;64.90;;;;;;5116212;28;20578;-89
2022/06/07 13:07:42;;;;;;;8.63;3.33;;;26.20;64.80;;;;;;5116138;28;20957;-89
2022/06/07 13:10:14;;;;;;;3.83;2.20;;;26.20;64.90;;;;;;5116712;28;20462;-85
2022/06/07 13:12:44;;;;;;;4.87;2.37;;;26.20;64.90;;;;;;5116187;28;20917;-85
2022/06/07 13:15:17;;;;;;;7.53;2.80;;;26.20;64.90;;;;;;5116321;28;20865;-85
2022/06/07 13:17:56;;;;;;;6.20;2.50;;;26.20;65.00;;;;;;5115644;28;21024;-85
2022/06/07 13:20:26;;;;;;;3.70;2.63;;;26.20;64.90;;;;;;5115636;28;20445;-84
2022/06/07 13:22:53;;;;;;;5.20;2.07;;;26.20;64.90;;;;;;5097398;28;20435;-84
2022/06/07 13:25:24;;;;;;;1.97;1.63;;;26.20;64.80;;;;;;5115738;28;20522;-85
2022/06/07 13:27:59;;;;;;;2.80;1.87;;;26.20;64.90;;;;;;5097111;28;21055;-84
2022/06/07 13:30:38;;;;;;;4.70;2.97;;;26.20;64.90;;;;;;5115627;28;20438;-85
2022/06/07 13:33:19;;;;;;;5.47;2.90;;;26.20;64.90;;;;;;5115613;28;20439;-85
2022/06/07 13:35:51;;;;;;;4.57;2.73;;;26.20;65.80;;;;;;5115397;28;20997;-85
2022/06/07 13:38:25;;;;;;;4.33;2.77;;;26.20;65.00;;;;;;5115368;28;20941;-89
2022/06/07 13:41:18;;;;;;;2.63;2.43;;;26.20;65.00;;;;;;5115832;28;20453;-88
2022/06/07 13:43:56;;;;;;;4.50;2.83;;;26.20;64.90;;;;;;5115227;28;20447;-87
2022/06/07 13:46:28;;;;;;;5.40;2.77;;;26.20;65.10;;;;;;5110662;28;20848;-88
2022/06/07 13:54:55;;;;;;;3.40;2.53;;;26.20;65.20;;;;;;5113634;28;20796;-88
2022/06/07 13:57:22;;;;;;;8.03;3.20;;;26.20;65.30;;;;;;5096019;28;20447;-87
2022/06/07 13:59:49;;;;;;;4.37;2.90;;;26.20;65.30;;;;;;5097149;28;20526;-88
2022/06/07 14:02:18;;;;;;;3.73;3.00;;;26.20;65.20;;;;;;5115064;28;20443;-88
2022/06/07 14:04:46;;;;;;;7.53;4.47;;;26.20;65.20;;;;;;5114738;28;20526;-88
2022/06/07 14:07:14;;;;;;;6.63;3.27;;;26.20;65.20;;;;;;5115037;28;20453;-88
2022/06/07 14:09:42;;;;;;;3.97;2.90;;;26.20;65.20;;;;;;5114729;28;20450;-88
2022/06/07 14:12:10;;;;;;;7.27;4.27;;;26.20;65.20;;;;;;5115193;28;20806;-87
2022/06/07 14:14:37;;;;;;;8.00;3.70;;;26.20;65.20;;;;;;5115197;28;20963;-88
2022/06/07 14:17:07;;;;;;;6.90;4.63;;;26.20;65.20;;;;;;5114920;28;20504;-88
2022/06/07 14:19:41;;;;;;;5.27;3.30;;;26.20;65.20;;;;;;5115093;28;20459;-88
2022/06/07 14:22:15;;;;;;;5.70;3.97;;;26.20;65.10;;;;;;5114796;28;20477;-87
2022/06/07 14:24:42;;;;;;;5.20;3.40;;;26.20;65.10;;;;;;5114980;28;20897;-87
2022/06/07 14:27:13;;;;;;;5.07;4.27;;;26.20;65.20;;;;;;5114704;28;20929;-88
2022/06/07 14:29:42;;;;;;;5.07;4.17;;;26.20;65.30;;;;;;5113804;28;20443;-87
2022/06/07 14:32:13;;;;;;;5.20;3.87;;;26.30;65.30;;;;;;5114934;28;20813;-88
2022/06/07 14:34:42;;;;;;;5.00;3.60;;;26.20;65.20;;;;;;5114640;28;20439;-87
2022/06/07 14:37:11;;;;;;;6.83;3.77;;;26.20;65.30;;;;;;5114710;28;20941;-87
2022/06/07 14:39:39;;;;;;;6.50;4.03;;;26.20;65.30;;;;;;5114396;28;20439;-88
2022/06/07 14:42:06;;;;;;;6.03;4.70;;;26.20;65.20;;;;;;5114385;28;20892;-85
2022/06/07 14:44:33;;;;;;;5.97;4.13;;;26.30;65.30;;;;;;5114378;28;20530;-84
2022/06/07 14:47:01;;;;;;;5.57;3.90;;;26.20;65.70;;;;;;5114508;28;21065;-84
2022/06/07 14:49:31;;;;;;;5.87;3.93;;;26.20;66.10;;;;;;5114526;28;20570;-85
2022/06/07 14:52:00;;;;;;;5.60;4.10;;;26.20;66.20;;;;;;5114095;28;20467;-85
2022/06/07 14:54:30;;;;;;;7.10;4.07;;;26.10;66.20;;;;;;5114325;28;20469;-85
2022/06/07 14:56:58;;;;;;;5.47;3.50;;;26.10;66.20;;;;;;5114245;28;20521;-84
2022/06/07 14:59:26;;;;;;;4.67;3.50;;;26.20;66.30;;;;;;5114533;28;20435;-84
2022/06/07 15:01:56;;;;;;;6.03;3.60;;;26.10;66.30;;;;;;5114243;28;20445;-84
2022/06/07 15:04:28;;;;;;;6.10;4.33;;;26.10;66.30;;;;;;5114324;28;20483;-87
2022/06/07 15:06:55;;;;;;;3.70;2.67;;;26.10;66.40;;;;;;5113620;28;20474;-88
2022/06/07 15:09:26;;;;;;;6.30;3.30;;;26.10;66.50;;;;;;5113900;28;20439;-89
2022/06/07 15:11:54;;;;;;;4.60;3.00;;;26.10;66.40;;;;;;5113918;28;20438;-84
2022/06/07 15:14:22;;;;;;;5.83;3.23;;;26.10;67.30;;;;;;5114040;28;20956;-84
2022/06/07 15:16:52;;;;;;;6.90;3.40;;;26.10;66.50;;;;;;5114000;28;20441;-85
2022/06/07 15:19:24;;;;;;;4.63;2.93;;;26.10;66.60;;;;;;5114159;28;20504;-85
2022/06/07 15:21:53;;;;;;;5.83;3.50;;;26.10;66.70;;;;;;5114320;28;20840;-84
2022/06/07 15:24:22;;;;;;;5.43;3.70;;;26.10;66.60;;;;;;5113996;28;20431;-85
2022/06/07 15:26:51;;;;;;;7.63;3.73;;;26.10;66.50;;;;;;5114121;28;20514;-84
2022/06/07 15:29:49;;;;;;;6.77;3.60;;;26.10;66.50;;;;;;5113861;28;20471;-84
2022/06/07 15:32:15;;;;;;;7.27;3.80;;;26.10;66.50;;;;;;5113776;28;20833;-84
2022/06/07 15:34:42;;;;;;;4.70;3.67;;;26.10;67.40;;;;;;5114047;28;20427;-85
2022/06/07 15:37:09;;;;;;;5.73;3.37;;;26.10;66.50;;;;;;5113896;28;20437;-88
2022/06/07 15:39:36;;;;;;;3.90;3.17;;;26.10;66.60;;;;;;5114071;28;20857;-88
2022/06/07 15:44:49;;;;;;;3.87;3.43;;;26.10;66.60;;;;;;5118255;28;20492;-84
2022/06/07 15:47:16;;;;;;;5.40;3.00;;;26.10;66.70;;;;;;5117901;28;20570;-84
2022/06/07 15:49:43;;;;;;;4.97;2.93;;;26.10;66.70;;;;;;5117850;28;20550;-85
2022/06/07 15:52:10;;;;;;;4.00;3.03;;;26.10;66.60;;;;;;5117660;28;20471;-83
2022/06/07 15:54:37;;;;;;;3.97;2.90;;;26.10;66.60;;;;;;5117771;28;20435;-89
2022/06/07 15:57:07;;;;;;;5.77;2.97;;;26.10;66.70;;;;;;5117849;28;20868;-84
2022/06/07 15:59:33;;;;;;;4.93;2.60;;;26.10;66.70;;;;;;5117803;28;20430;-84
2022/06/07 16:02:00;;;;;;;3.43;3.13;;;26.10;66.70;;;;;;5117728;28;20473;-84
2022/06/07 16:04:28;;;;;;;3.43;2.27;;;26.10;66.70;;;;;;5117535;28;20438;-84
2022/06/07 16:06:55;;;;;;;3.30;2.63;;;26.10;66.70;;;;;;5117890;28;20517;-84
2022/06/07 16:09:22;;;;;;;4.03;2.80;;;26.10;66.80;;;;;;5117766;28;20446;-89
2022/06/07 16:11:49;;;;;;;4.20;2.57;;;26.10;66.70;;;;;;5117615;28;20533;-84
2022/06/07 16:14:17;;;;;;;3.93;3.20;;;26.10;66.70;;;;;;5117514;28;20441;-85
2022/06/07 16:16:46;;;;;;;2.93;2.17;;;26.10;66.60;;;;;;5117963;28;20491;-88
2022/06/07 16:19:14;;;;;;;3.50;2.87;;;26.10;66.70;;;;;;5117341;28;20856;-85
2022/06/07 16:21:41;;;;;;;3.30;2.40;;;26.10;66.80;;;;;;5117653;28;20438;-85
2022/06/07 16:24:10;;;;;;;3.07;2.30;;;26.10;66.80;;;;;;5117508;28;20787;-84
2022/06/07 16:26:37;;;;;;;2.43;2.23;;;26.10;66.70;;;;;;5117175;28;20486;-84
2022/06/07 16:34:42;;;;;;;2.33;2.13;;;26.10;66.80;;;;;;5117338;28;20410;-84
2022/06/07 16:37:10;;;;;;;2.87;2.30;;;26.00;66.80;;;;;;5117008;28;20433;-90
2022/06/07 16:39:37;;;;;;;4.93;2.23;;;26.00;66.70;;;;;;5117229;28;20431;-84
2022/06/07 16:42:05;;;;;;;2.30;2.03;;;26.00;66.80;;;;;;5117126;28;20466;-85
2022/06/07 16:44:34;;;;;;;7.00;2.53;;;26.00;66.80;;;;;;5117004;28;20550;-90
2022/06/07 16:47:02;;;;;;;2.33;2.13;;;26.00;66.80;;;;;;5116893;28;20485;-84
2022/06/07 16:49:30;;;;;;;2.77;2.10;;;26.00;66.80;;;;;;5116942;28;20455;-84
2022/06/07 16:51:59;;;;;;;2.43;2.10;;;26.00;66.80;;;;;;5116543;28;20469;-84
2022/06/07 16:54:27;;;;;;;2.20;2.00;;;26.10;66.90;;;;;;5115916;28;20439;-84
2022/06/07 16:56:56;;;;;;;2.30;2.10;;;26.00;66.80;;;;;;5116615;28;20442;-84
2022/06/07 16:59:25;;;;;;;2.00;1.80;;;26.10;66.90;;;;;;5116772;28;20434;-84
2022/06/07 17:01:52;;;;;;;2.57;1.77;;;26.00;66.90;;;;;;5116954;28;20443;-84
2022/06/07 17:04:20;;;;;;;3.67;2.47;;;26.00;66.90;;;;;;5116730;28;20427;-84
2022/06/07 17:06:48;;;;;;;1.83;1.73;;;26.00;66.90;;;;;;5116533;28;20572;-84
2022/06/07 17:09:15;;;;;;;4.23;2.10;;;26.00;66.90;;;;;;5116465;28;21008;-85
2022/06/07 17:11:42;;;;;;;1.67;1.50;;;26.00;66.90;;;;;;5116528;28;20825;-85
2022/06/07 17:14:09;;;;;;;3.40;2.10;;;26.00;66.90;;;;;;5116692;28;20439;-88
2022/06/07 17:16:39;;;;;;;4.60;2.63;;;26.00;66.90;;;;;;5116301;28;20439;-85
2022/06/07 17:19:06;;;;;;;2.27;1.93;;;26.00;67.00;;;;;;5115932;28;20486;-84
2022/06/07 17:21:35;;;;;;;2.70;1.73;;;26.00;66.90;;;;;;5116060;28;20963;-84
2022/06/07 17:24:02;;;;;;;2.10;1.90;;;26.00;67.00;;;;;;5115919;28;20439;-85
2022/06/07 17:26:30;;;;;;;1.70;1.50;;;26.00;67.00;;;;;;5116552;28;20565;-88
2022/06/07 17:28:56;;;;;;;2.20;1.97;;;26.00;67.30;;;;;;5117272;28;20843;-88
2022/06/07 17:31:23;;;;;;;2.23;2.00;;;26.00;67.40;;;;;;5116194;28;20431;-87
2022/06/07 17:33:51;;;;;;;1.97;1.87;;;26.00;67.30;;;;;;5115776;28;20522;-86
2022/06/07 17:36:22;;;;;;;2.10;1.90;;;26.00;67.40;;;;;;5115866;28;20529;-85
2022/06/07 17:38:53;;;;;;;2.70;1.90;;;26.00;67.50;;;;;;5116062;28;20443;-92
2022/06/07 17:41:20;;;;;;;2.30;2.10;;;26.00;67.50;;;;;;5115675;28;20523;-89
2022/06/07 17:43:49;;;;;;;3.23;1.77;;;26.00;67.50;;;;;;5115666;28;20446;-91
2022/06/07 17:46:16;;;;;;;2.23;1.90;;;25.90;67.40;;;;;;5115023;28;20821;-91
2022/06/07 17:48:43;;;;;;;2.23;1.60;;;25.90;67.50;;;;;;5115232;28;20469;-84
2022/06/07 17:51:12;;;;;;;4.17;1.70;;;25.90;67.50;;;;;;5114970;28;20443;-84
2022/06/07 17:53:39;;;;;;;3.90;2.30;;;25.90;67.40;;;;;;5115009;28;21219;-84
2022/06/07 17:56:07;;;;;;;2.70;1.70;;;25.90;67.50;;;;;;5115069;28;20445;-89
2022/06/07 17:58:34;;;;;;;2.40;1.60;;;25.90;67.50;;;;;;5115891;28;20526;-90
2022/06/07 18:01:02;;;;;;;1.93;1.80;;;26.00;67.60;;;;;;5115674;28;20443;-92
2022/06/07 18:03:30;;;;;;;1.87;1.47;;;25.90;67.60;;;;;;5097747;28;20538;-91
2022/06/07 18:05:58;;;;;;;1.60;1.30;;;25.90;67.60;;;;;;5115137;28;20439;-91
2022/06/07 18:08:25;;;;;;;3.97;1.50;;;25.90;67.60;;;;;;5115380;28;20439;-88
2022/06/07 18:10:52;;;;;;;1.50;1.40;;;25.90;67.60;;;;;;5115431;28;20798;-85
2022/06/07 18:13:22;;;;;;;1.77;1.67;;;25.90;67.70;;;;;;5115485;28;20444;-91
2022/06/07 18:15:50;;;;;;;2.20;1.60;;;25.90;67.70;;;;;;5115177;28;20530;-90
2022/06/07 18:18:18;;;;;;;2.00;1.60;;;25.90;67.60;;;;;;5114922;28;20461;-91
2022/06/07 18:20:49;;;;;;;2.23;1.60;;;25.90;67.70;;;;;;5097483;28;20478;-91
2022/06/07 18:23:19;;;;;;;1.53;1.43;;;25.90;67.70;;;;;;5115026;28;20431;-84
2022/06/07 18:25:46;;;;;;;2.40;1.53;;;25.90;67.70;;;;;;5114837;28;20525;-84
2022/06/07 18:28:13;;;;;;;1.50;1.37;;;25.90;67.60;;;;;;5114724;28;21018;-84
2022/06/07 18:30:42;;;;;;;1.90;1.80;;;25.90;67.70;;;;;;5096931;28;20443;-84
2022/06/07 18:33:09;;;;;;;1.30;1.20;;;25.90;67.60;;;;;;5114819;28;20538;-84